sensor_id;sensor_type;location;lat;lon;timestamp;P1;durP1;ratioP1;P2;durP2;ratioP2
14092;SDS011;7123;49.468;10.992;2023-04-03T00:01:04;1.57;;;1.47;;
14092;SDS011;7123;49.468;10.992;2023-04-03T00:03:31;1.73;;;1.33;;
14092;SDS011;7123;49.468;10.992;2023-04-03T00:05:58;1.60;;;1.50;;
14092;SDS011;7123;49.468;10.992;2023-04-03T00:08:25;2.27;;;1.30;;
14092;SDS011;7123;49.468;10.992;2023-04-03T00:10:51;1.70;;;1.60;;
14092;SDS011;7123;49.468;10.992;2023-04-03T00:13:18;1.53;;;1.43;;
14092;SDS011;7123;49.468;10.992;2023-04-03T00:15:45;1.50;;;1.40;;
14092;SDS011;7123;49.468;10.992;2023-04-03T00:18:12;1.50;;;1.40;;
14092;SDS011;7123;49.468;10.992;2023-04-03T00:20:38;1.87;;;1.77;;
14092;SDS011;7123;49.468;10.992;2023-04-03T00:23:05;2.43;;;1.50;;
14092;SDS011;7123;49.468;10.992;2023-04-03T00:25:32;1.40;;;1.20;;
14092;SDS011;7123;49.468;10.992;2023-04-03T00:27:59;1.47;;;1.23;;
14092;SDS011;7123;49.468;10.992;2023-04-03T00:30:26;1.83;;;1.50;;
14092;SDS011;7123;49.468;10.992;2023-04-03T00:32:53;2.50;;;1.50;;
14092;SDS011;7123;49.468;10.992;2023-04-03T00:35:20;1.60;;;1.50;;
14092;SDS011;7123;49.468;10.992;2023-04-03T00:37:48;2.27;;;1.20;;
14092;SDS011;7123;49.468;10.992;2023-04-03T00:40:18;1.40;;;1.30;;
14092;SDS011;7123;49.468;10.992;2023-04-03T00:42:45;1.50;;;1.40;;
14092;SDS011;7123;49.468;10.992;2023-04-03T00:45:36;1.77;;;1.30;;
14092;SDS011;7123;49.468;10.992;2023-04-03T00:48:05;3.43;;;1.60;;
14092;SDS011;7123;49.468;10.992;2023-04-03T00:50:35;1.53;;;1.43;;
14092;SDS011;7123;49.468;10.992;2023-04-03T00:53:04;2.00;;;1.80;;
14092;SDS011;7123;49.468;10.992;2023-04-03T00:55:33;1.70;;;1.60;;
14092;SDS011;7123;49.468;10.992;2023-04-03T00:58:03;1.60;;;1.50;;
14092;SDS011;7123;49.468;10.992;2023-04-03T01:00:32;1.63;;;1.53;;
14092;SDS011;7123;49.468;10.992;2023-04-03T01:03:01;2.20;;;1.63;;
14092;SDS011;7123;49.468;10.992;2023-04-03T01:05:28;1.60;;;1.50;;
14092;SDS011;7123;49.468;10.992;2023-04-03T01:07:55;1.33;;;1.23;;
14092;SDS011;7123;49.468;10.992;2023-04-03T01:10:23;1.53;;;1.43;;
14092;SDS011;7123;49.468;10.992;2023-04-03T01:12:51;1.50;;;1.40;;
14092;SDS011;7123;49.468;10.992;2023-04-03T01:15:20;1.60;;;1.50;;
14092;SDS011;7123;49.468;10.992;2023-04-03T01:17:50;1.60;;;1.50;;
14092;SDS011;7123;49.468;10.992;2023-04-03T01:25:37;1.70;;;1.60;;
14092;SDS011;7123;49.468;10.992;2023-04-03T01:28:19;1.60;;;1.50;;
14092;SDS011;7123;49.468;10.992;2023-04-03T01:31:02;2.40;;;1.63;;
14092;SDS011;7123;49.468;10.992;2023-04-03T01:33:32;1.47;;;1.37;;
14092;SDS011;7123;49.468;10.992;2023-04-03T01:36:00;1.87;;;1.57;;
14092;SDS011;7123;49.468;10.992;2023-04-03T01:38:27;3.50;;;1.77;;
14092;SDS011;7123;49.468;10.992;2023-04-03T01:40:54;1.60;;;1.50;;
14092;SDS011;7123;49.468;10.992;2023-04-03T01:43:20;1.40;;;1.30;;
14092;SDS011;7123;49.468;10.992;2023-04-03T01:45:47;1.80;;;1.70;;
14092;SDS011;7123;49.468;10.992;2023-04-03T01:48:16;1.30;;;1.20;;
14092;SDS011;7123;49.468;10.992;2023-04-03T01:50:42;2.47;;;1.43;;
14092;SDS011;7123;49.468;10.992;2023-04-03T01:53:10;1.97;;;1.60;;
14092;SDS011;7123;49.468;10.992;2023-04-03T01:55:36;1.60;;;1.50;;
14092;SDS011;7123;49.468;10.992;2023-04-03T01:58:03;1.80;;;1.70;;
14092;SDS011;7123;49.468;10.992;2023-04-03T02:00:30;1.80;;;1.70;;
14092;SDS011;7123;49.468;10.992;2023-04-03T02:02:56;1.87;;;1.77;;
14092;SDS011;7123;49.468;10.992;2023-04-03T02:05:23;1.50;;;1.40;;
14092;SDS011;7123;49.468;10.992;2023-04-03T02:07:50;2.37;;;1.40;;
14092;SDS011;7123;49.468;10.992;2023-04-03T02:10:17;3.90;;;1.90;;
14092;SDS011;7123;49.468;10.992;2023-04-03T02:12:44;1.57;;;1.40;;
14092;SDS011;7123;49.468;10.992;2023-04-03T02:15:11;1.30;;;1.20;;
14092;SDS011;7123;49.468;10.992;2023-04-03T02:17:38;1.30;;;1.30;;
14092;SDS011;7123;49.468;10.992;2023-04-03T02:20:05;1.53;;;1.43;;
14092;SDS011;7123;49.468;10.992;2023-04-03T02:22:32;2.33;;;1.70;;
14092;SDS011;7123;49.468;10.992;2023-04-03T02:24:59;1.70;;;1.60;;
14092;SDS011;7123;49.468;10.992;2023-04-03T02:27:25;1.97;;;1.50;;
14092;SDS011;7123;49.468;10.992;2023-04-03T02:29:52;1.37;;;1.27;;
14092;SDS011;7123;49.468;10.992;2023-04-03T02:32:19;2.73;;;1.50;;
14092;SDS011;7123;49.468;10.992;2023-04-03T02:34:46;1.67;;;1.40;;
14092;SDS011;7123;49.468;10.992;2023-04-03T02:37:12;1.93;;;1.40;;
14092;SDS011;7123;49.468;10.992;2023-04-03T02:39:39;2.20;;;1.50;;
14092;SDS011;7123;49.468;10.992;2023-04-03T02:42:06;1.60;;;1.47;;
14092;SDS011;7123;49.468;10.992;2023-04-03T02:44:33;2.20;;;1.63;;
14092;SDS011;7123;49.468;10.992;2023-04-03T02:47:00;1.73;;;1.50;;
14092;SDS011;7123;49.468;10.992;2023-04-03T02:49:27;2.70;;;1.63;;
14092;SDS011;7123;49.468;10.992;2023-04-03T02:51:53;1.80;;;1.70;;
14092;SDS011;7123;49.468;10.992;2023-04-03T02:54:20;1.57;;;1.40;;
14092;SDS011;7123;49.468;10.992;2023-04-03T02:56:49;1.60;;;1.50;;
14092;SDS011;7123;49.468;10.992;2023-04-03T02:59:16;2.03;;;1.60;;
14092;SDS011;7123;49.468;10.992;2023-04-03T03:01:43;1.53;;;1.43;;
14092;SDS011;7123;49.468;10.992;2023-04-03T03:04:09;2.33;;;1.30;;
14092;SDS011;7123;49.468;10.992;2023-04-03T03:06:36;1.40;;;1.30;;
14092;SDS011;7123;49.468;10.992;2023-04-03T03:09:03;1.77;;;1.50;;
14092;SDS011;7123;49.468;10.992;2023-04-03T03:11:31;4.70;;;1.60;;
14092;SDS011;7123;49.468;10.992;2023-04-03T03:13:58;1.60;;;1.50;;
14092;SDS011;7123;49.468;10.992;2023-04-03T03:16:25;2.97;;;1.60;;
14092;SDS011;7123;49.468;10.992;2023-04-03T03:18:52;2.63;;;1.67;;
14092;SDS011;7123;49.468;10.992;2023-04-03T03:21:18;1.60;;;1.50;;
14092;SDS011;7123;49.468;10.992;2023-04-03T03:23:45;2.73;;;1.40;;
14092;SDS011;7123;49.468;10.992;2023-04-03T03:26:12;2.40;;;1.80;;
14092;SDS011;7123;49.468;10.992;2023-04-03T03:28:39;1.90;;;1.30;;
14092;SDS011;7123;49.468;10.992;2023-04-03T03:31:06;1.97;;;1.83;;
14092;SDS011;7123;49.468;10.992;2023-04-03T03:33:34;2.83;;;1.80;;
14092;SDS011;7123;49.468;10.992;2023-04-03T03:36:01;2.57;;;1.70;;
14092;SDS011;7123;49.468;10.992;2023-04-03T03:38:28;6.77;;;1.97;;
14092;SDS011;7123;49.468;10.992;2023-04-03T03:40:55;4.73;;;1.60;;
14092;SDS011;7123;49.468;10.992;2023-04-03T03:43:22;4.80;;;1.70;;
14092;SDS011;7123;49.468;10.992;2023-04-03T03:45:51;2.90;;;1.60;;
14092;SDS011;7123;49.468;10.992;2023-04-03T03:48:19;3.60;;;1.97;;
14092;SDS011;7123;49.468;10.992;2023-04-03T03:50:46;4.00;;;1.90;;
14092;SDS011;7123;49.468;10.992;2023-04-03T03:53:13;2.33;;;1.70;;
14092;SDS011;7123;49.468;10.992;2023-04-03T03:55:40;2.03;;;1.83;;
14092;SDS011;7123;49.468;10.992;2023-04-03T03:58:07;2.30;;;1.77;;
14092;SDS011;7123;49.468;10.992;2023-04-03T04:00:34;2.80;;;1.83;;
14092;SDS011;7123;49.468;10.992;2023-04-03T04:03:01;5.93;;;1.83;;
14092;SDS011;7123;49.468;10.992;2023-04-03T04:05:28;3.90;;;1.90;;
14092;SDS011;7123;49.468;10.992;2023-04-03T04:07:54;4.23;;;1.77;;
14092;SDS011;7123;49.468;10.992;2023-04-03T04:10:21;3.27;;;2.00;;
14092;SDS011;7123;49.468;10.992;2023-04-03T04:12:48;2.53;;;2.00;;
14092;SDS011;7123;49.468;10.992;2023-04-03T04:15:17;1.60;;;1.50;;
14092;SDS011;7123;49.468;10.992;2023-04-03T04:17:44;3.43;;;1.83;;
14092;SDS011;7123;49.468;10.992;2023-04-03T04:20:11;2.00;;;1.60;;
14092;SDS011;7123;49.468;10.992;2023-04-03T04:22:38;3.40;;;2.20;;
14092;SDS011;7123;49.468;10.992;2023-04-03T04:25:05;2.20;;;2.00;;
14092;SDS011;7123;49.468;10.992;2023-04-03T04:27:32;2.70;;;2.20;;
14092;SDS011;7123;49.468;10.992;2023-04-03T04:29:58;3.40;;;2.20;;
14092;SDS011;7123;49.468;10.992;2023-04-03T04:32:25;4.70;;;2.30;;
14092;SDS011;7123;49.468;10.992;2023-04-03T04:34:52;2.47;;;2.27;;
14092;SDS011;7123;49.468;10.992;2023-04-03T04:37:18;5.77;;;1.80;;
14092;SDS011;7123;49.468;10.992;2023-04-03T04:39:45;3.10;;;2.13;;
14092;SDS011;7123;49.468;10.992;2023-04-03T04:42:12;2.30;;;2.07;;
14092;SDS011;7123;49.468;10.992;2023-04-03T04:44:41;2.80;;;1.90;;
14092;SDS011;7123;49.468;10.992;2023-04-03T04:47:08;4.47;;;2.20;;
14092;SDS011;7123;49.468;10.992;2023-04-03T04:49:35;2.07;;;1.87;;
14092;SDS011;7123;49.468;10.992;2023-04-03T04:52:02;3.30;;;2.20;;
14092;SDS011;7123;49.468;10.992;2023-04-03T04:54:28;3.83;;;2.03;;
14092;SDS011;7123;49.468;10.992;2023-04-03T04:56:55;4.93;;;2.40;;
14092;SDS011;7123;49.468;10.992;2023-04-03T04:59:22;6.80;;;2.10;;
14092;SDS011;7123;49.468;10.992;2023-04-03T05:01:49;1.80;;;1.70;;
14092;SDS011;7123;49.468;10.992;2023-04-03T05:04:16;2.93;;;2.40;;
14092;SDS011;7123;49.468;10.992;2023-04-03T05:06:44;2.80;;;2.10;;
14092;SDS011;7123;49.468;10.992;2023-04-03T05:09:10;2.53;;;2.17;;
14092;SDS011;7123;49.468;10.992;2023-04-03T05:11:37;2.80;;;2.50;;
14092;SDS011;7123;49.468;10.992;2023-04-03T05:14:04;2.40;;;2.03;;
14092;SDS011;7123;49.468;10.992;2023-04-03T05:16:32;5.77;;;2.20;;
14092;SDS011;7123;49.468;10.992;2023-04-03T05:18:59;4.47;;;2.40;;
14092;SDS011;7123;49.468;10.992;2023-04-03T05:21:26;3.03;;;1.90;;
14092;SDS011;7123;49.468;10.992;2023-04-03T05:23:55;6.53;;;2.67;;
14092;SDS011;7123;49.468;10.992;2023-04-03T05:26:22;3.50;;;2.57;;
14092;SDS011;7123;49.468;10.992;2023-04-03T05:28:48;3.60;;;2.13;;
14092;SDS011;7123;49.468;10.992;2023-04-03T05:31:15;3.50;;;2.60;;
14092;SDS011;7123;49.468;10.992;2023-04-03T05:33:42;4.50;;;2.83;;
14092;SDS011;7123;49.468;10.992;2023-04-03T05:36:08;4.70;;;2.43;;
14092;SDS011;7123;49.468;10.992;2023-04-03T05:38:35;5.23;;;2.40;;
14092;SDS011;7123;49.468;10.992;2023-04-03T05:41:02;4.17;;;1.97;;
14092;SDS011;7123;49.468;10.992;2023-04-03T05:43:29;4.27;;;2.50;;
14092;SDS011;7123;49.468;10.992;2023-04-03T05:45:55;3.87;;;2.50;;
14092;SDS011;7123;49.468;10.992;2023-04-03T05:48:22;2.70;;;2.50;;
14092;SDS011;7123;49.468;10.992;2023-04-03T05:50:49;7.37;;;2.73;;
14092;SDS011;7123;49.468;10.992;2023-04-03T05:53:17;4.63;;;2.20;;
14092;SDS011;7123;49.468;10.992;2023-04-03T05:55:47;3.17;;;2.40;;
14092;SDS011;7123;49.468;10.992;2023-04-03T05:58:14;5.57;;;2.43;;
14092;SDS011;7123;49.468;10.992;2023-04-03T06:00:41;3.13;;;2.40;;
14092;SDS011;7123;49.468;10.992;2023-04-03T06:03:08;3.50;;;2.30;;
14092;SDS011;7123;49.468;10.992;2023-04-03T06:05:35;2.83;;;2.50;;
14092;SDS011;7123;49.468;10.992;2023-04-03T06:08:02;3.77;;;2.00;;
14092;SDS011;7123;49.468;10.992;2023-04-03T06:10:29;3.17;;;2.37;;
14092;SDS011;7123;49.468;10.992;2023-04-03T06:12:56;7.07;;;2.23;;
14092;SDS011;7123;49.468;10.992;2023-04-03T06:15:23;3.67;;;2.13;;
14092;SDS011;7123;49.468;10.992;2023-04-03T06:17:50;2.27;;;2.03;;
14092;SDS011;7123;49.468;10.992;2023-04-03T06:20:17;3.27;;;2.40;;
14092;SDS011;7123;49.468;10.992;2023-04-03T06:22:44;3.83;;;2.33;;
14092;SDS011;7123;49.468;10.992;2023-04-03T06:25:10;2.30;;;2.10;;
14092;SDS011;7123;49.468;10.992;2023-04-03T06:27:38;4.43;;;2.27;;
14092;SDS011;7123;49.468;10.992;2023-04-03T06:30:05;2.87;;;2.00;;
14092;SDS011;7123;49.468;10.992;2023-04-03T06:32:32;4.20;;;1.90;;
14092;SDS011;7123;49.468;10.992;2023-04-03T06:34:59;2.03;;;1.80;;
14092;SDS011;7123;49.468;10.992;2023-04-03T06:37:26;3.87;;;2.20;;
14092;SDS011;7123;49.468;10.992;2023-04-03T06:39:54;3.93;;;2.17;;
14092;SDS011;7123;49.468;10.992;2023-04-03T06:42:21;3.63;;;2.13;;
14092;SDS011;7123;49.468;10.992;2023-04-03T06:44:49;4.87;;;2.17;;
14092;SDS011;7123;49.468;10.992;2023-04-03T06:47:16;4.23;;;2.53;;
14092;SDS011;7123;49.468;10.992;2023-04-03T06:49:43;4.13;;;1.70;;
14092;SDS011;7123;49.468;10.992;2023-04-03T06:52:10;4.57;;;2.30;;
14092;SDS011;7123;49.468;10.992;2023-04-03T06:54:38;2.27;;;2.03;;
14092;SDS011;7123;49.468;10.992;2023-04-03T06:57:06;4.40;;;1.97;;
14092;SDS011;7123;49.468;10.992;2023-04-03T06:59:33;3.87;;;1.70;;
14092;SDS011;7123;49.468;10.992;2023-04-03T07:02:01;4.57;;;2.30;;
14092;SDS011;7123;49.468;10.992;2023-04-03T07:04:27;3.33;;;1.67;;
14092;SDS011;7123;49.468;10.992;2023-04-03T07:06:54;3.43;;;2.00;;
14092;SDS011;7123;49.468;10.992;2023-04-03T07:09:21;2.83;;;2.10;;
14092;SDS011;7123;49.468;10.992;2023-04-03T07:11:48;3.23;;;2.00;;
14092;SDS011;7123;49.468;10.992;2023-04-03T07:14:15;2.97;;;2.00;;
14092;SDS011;7123;49.468;10.992;2023-04-03T07:16:42;2.23;;;1.90;;
14092;SDS011;7123;49.468;10.992;2023-04-03T07:19:08;3.43;;;2.40;;
14092;SDS011;7123;49.468;10.992;2023-04-03T07:21:35;4.17;;;2.47;;
14092;SDS011;7123;49.468;10.992;2023-04-03T07:24:02;3.87;;;2.10;;
14092;SDS011;7123;49.468;10.992;2023-04-03T07:26:29;3.40;;;2.37;;
14092;SDS011;7123;49.468;10.992;2023-04-03T07:28:56;2.53;;;2.33;;
14092;SDS011;7123;49.468;10.992;2023-04-03T07:31:23;4.67;;;2.57;;
14092;SDS011;7123;49.468;10.992;2023-04-03T07:33:50;3.37;;;2.20;;
14092;SDS011;7123;49.468;10.992;2023-04-03T07:36:18;2.97;;;2.50;;
14092;SDS011;7123;49.468;10.992;2023-04-03T07:38:46;4.40;;;2.30;;
14092;SDS011;7123;49.468;10.992;2023-04-03T07:41:17;5.00;;;2.30;;
14092;SDS011;7123;49.468;10.992;2023-04-03T07:43:46;3.47;;;2.73;;
14092;SDS011;7123;49.468;10.992;2023-04-03T07:46:14;4.40;;;2.53;;
14092;SDS011;7123;49.468;10.992;2023-04-03T07:48:41;4.13;;;2.73;;
14092;SDS011;7123;49.468;10.992;2023-04-03T07:51:07;3.67;;;2.67;;
14092;SDS011;7123;49.468;10.992;2023-04-03T07:53:35;3.93;;;2.50;;
14092;SDS011;7123;49.468;10.992;2023-04-03T07:56:02;3.33;;;2.40;;
14092;SDS011;7123;49.468;10.992;2023-04-03T07:58:29;5.23;;;2.27;;
14092;SDS011;7123;49.468;10.992;2023-04-03T08:00:55;3.63;;;2.47;;
14092;SDS011;7123;49.468;10.992;2023-04-03T08:03:23;4.47;;;2.57;;
14092;SDS011;7123;49.468;10.992;2023-04-03T08:05:50;2.87;;;2.40;;
14092;SDS011;7123;49.468;10.992;2023-04-03T08:08:19;4.67;;;2.13;;
14092;SDS011;7123;49.468;10.992;2023-04-03T08:10:51;3.23;;;2.57;;
14092;SDS011;7123;49.468;10.992;2023-04-03T08:13:20;4.03;;;2.50;;
14092;SDS011;7123;49.468;10.992;2023-04-03T08:15:47;2.50;;;2.30;;
14092;SDS011;7123;49.468;10.992;2023-04-03T08:18:14;4.67;;;2.40;;
14092;SDS011;7123;49.468;10.992;2023-04-03T08:20:42;4.77;;;2.47;;
14092;SDS011;7123;49.468;10.992;2023-04-03T08:23:09;2.30;;;2.10;;
14092;SDS011;7123;49.468;10.992;2023-04-03T08:25:39;3.17;;;2.53;;
14092;SDS011;7123;49.468;10.992;2023-04-03T08:28:07;3.43;;;2.20;;
14092;SDS011;7123;49.468;10.992;2023-04-03T08:30:39;5.03;;;2.27;;
14092;SDS011;7123;49.468;10.992;2023-04-03T08:33:07;2.50;;;2.00;;
14092;SDS011;7123;49.468;10.992;2023-04-03T08:35:38;4.00;;;2.20;;
14092;SDS011;7123;49.468;10.992;2023-04-03T08:38:07;3.07;;;2.23;;
14092;SDS011;7123;49.468;10.992;2023-04-03T08:40:34;2.10;;;1.93;;
14092;SDS011;7123;49.468;10.992;2023-04-03T08:43:22;4.57;;;2.30;;
14092;SDS011;7123;49.468;10.992;2023-04-03T08:46:01;4.03;;;2.27;;
14092;SDS011;7123;49.468;10.992;2023-04-03T08:48:31;4.13;;;2.70;;
14092;SDS011;7123;49.468;10.992;2023-04-03T08:51:13;3.37;;;2.07;;
14092;SDS011;7123;49.468;10.992;2023-04-03T08:53:44;3.33;;;1.80;;
14092;SDS011;7123;49.468;10.992;2023-04-03T08:56:23;2.60;;;1.90;;
14092;SDS011;7123;49.468;10.992;2023-04-03T08:58:55;2.17;;;1.90;;
14092;SDS011;7123;49.468;10.992;2023-04-03T09:01:38;3.13;;;1.97;;
14092;SDS011;7123;49.468;10.992;2023-04-03T09:04:13;3.30;;;1.90;;
14092;SDS011;7123;49.468;10.992;2023-04-03T09:06:45;3.10;;;2.03;;
14092;SDS011;7123;49.468;10.992;2023-04-03T09:12:24;4.03;;;2.40;;
14092;SDS011;7123;49.468;10.992;2023-04-03T09:20:24;2.50;;;1.57;;
14092;SDS011;7123;49.468;10.992;2023-04-03T09:23:19;2.93;;;1.70;;
14092;SDS011;7123;49.468;10.992;2023-04-03T09:25:50;2.67;;;1.80;;
14092;SDS011;7123;49.468;10.992;2023-04-03T09:28:19;2.40;;;1.70;;
14092;SDS011;7123;49.468;10.992;2023-04-03T09:30:46;3.70;;;1.80;;
14092;SDS011;7123;49.468;10.992;2023-04-03T09:33:12;3.07;;;1.90;;
14092;SDS011;7123;49.468;10.992;2023-04-03T09:35:44;1.93;;;1.40;;
14092;SDS011;7123;49.468;10.992;2023-04-03T09:38:20;3.03;;;1.40;;
14092;SDS011;7123;49.468;10.992;2023-04-03T09:41:02;1.80;;;1.60;;
14092;SDS011;7123;49.468;10.992;2023-04-03T09:43:39;1.60;;;1.50;;
14092;SDS011;7123;49.468;10.992;2023-04-03T09:46:32;2.67;;;1.50;;
14092;SDS011;7123;49.468;10.992;2023-04-03T09:49:02;3.40;;;1.77;;
14092;SDS011;7123;49.468;10.992;2023-04-03T09:51:35;4.93;;;2.10;;
14092;SDS011;7123;49.468;10.992;2023-04-03T09:56:57;2.17;;;1.60;;
14092;SDS011;7123;49.468;10.992;2023-04-03T09:59:35;1.90;;;1.77;;
14092;SDS011;7123;49.468;10.992;2023-04-03T10:02:24;3.10;;;1.70;;
14092;SDS011;7123;49.468;10.992;2023-04-03T10:04:58;2.10;;;1.90;;
14092;SDS011;7123;49.468;10.992;2023-04-03T10:07:36;3.33;;;1.90;;
14092;SDS011;7123;49.468;10.992;2023-04-03T10:10:20;3.60;;;1.90;;
14092;SDS011;7123;49.468;10.992;2023-04-03T10:15:55;2.13;;;1.57;;
14092;SDS011;7123;49.468;10.992;2023-04-03T10:21:06;4.13;;;1.50;;
14092;SDS011;7123;49.468;10.992;2023-04-03T10:23:59;2.80;;;1.60;;
14092;SDS011;7123;49.468;10.992;2023-04-03T10:34:52;2.40;;;1.50;;
14092;SDS011;7123;49.468;10.992;2023-04-03T10:37:33;2.30;;;1.57;;
14092;SDS011;7123;49.468;10.992;2023-04-03T10:46:32;3.07;;;1.80;;
14092;SDS011;7123;49.468;10.992;2023-04-03T10:54:19;1.90;;;1.80;;
14092;SDS011;7123;49.468;10.992;2023-04-03T10:57:02;4.07;;;1.93;;
14092;SDS011;7123;49.468;10.992;2023-04-03T10:59:46;2.93;;;1.50;;
14092;SDS011;7123;49.468;10.992;2023-04-03T11:07:59;3.67;;;1.97;;
14092;SDS011;7123;49.468;10.992;2023-04-03T11:10:42;3.07;;;1.90;;
14092;SDS011;7123;49.468;10.992;2023-04-03T11:13:15;3.90;;;1.90;;
14092;SDS011;7123;49.468;10.992;2023-04-03T11:15:47;2.20;;;1.60;;
14092;SDS011;7123;49.468;10.992;2023-04-03T11:18:38;2.77;;;1.53;;
14092;SDS011;7123;49.468;10.992;2023-04-03T11:21:17;3.57;;;1.80;;
14092;SDS011;7123;49.468;10.992;2023-04-03T11:23:47;1.70;;;1.53;;
14092;SDS011;7123;49.468;10.992;2023-04-03T11:26:17;4.07;;;1.87;;
14092;SDS011;7123;49.468;10.992;2023-04-03T11:28:51;2.67;;;2.03;;
14092;SDS011;7123;49.468;10.992;2023-04-03T11:32:08;4.50;;;2.00;;
14092;SDS011;7123;49.468;10.992;2023-04-03T11:34:39;2.70;;;1.67;;
14092;SDS011;7123;49.468;10.992;2023-04-03T11:37:12;1.80;;;1.70;;
14092;SDS011;7123;49.468;10.992;2023-04-03T11:40:04;2.13;;;1.90;;
14092;SDS011;7123;49.468;10.992;2023-04-03T11:42:46;3.27;;;1.87;;
14092;SDS011;7123;49.468;10.992;2023-04-03T11:47:50;3.53;;;1.90;;
14092;SDS011;7123;49.468;10.992;2023-04-03T11:53:01;2.10;;;1.57;;
14092;SDS011;7123;49.468;10.992;2023-04-03T12:16:27;2.60;;;1.70;;
14092;SDS011;7123;49.468;10.992;2023-04-03T12:19:02;2.60;;;1.90;;
14092;SDS011;7123;49.468;10.992;2023-04-03T12:24:24;2.17;;;1.57;;
14092;SDS011;7123;49.468;10.992;2023-04-03T12:29:33;1.80;;;1.70;;
14092;SDS011;7123;49.468;10.992;2023-04-03T12:43:48;3.27;;;1.70;;
14092;SDS011;7123;49.468;10.992;2023-04-03T12:46:55;1.80;;;1.70;;
14092;SDS011;7123;49.468;10.992;2023-04-03T12:52:02;5.57;;;1.50;;
14092;SDS011;7123;49.468;10.992;2023-04-03T12:54:39;1.63;;;1.53;;
14092;SDS011;7123;49.468;10.992;2023-04-03T12:59:44;2.13;;;1.70;;
14092;SDS011;7123;49.468;10.992;2023-04-03T13:04:53;1.93;;;1.70;;
14092;SDS011;7123;49.468;10.992;2023-04-03T13:07:25;3.30;;;1.50;;
14092;SDS011;7123;49.468;10.992;2023-04-03T13:12:32;2.10;;;1.60;;
14092;SDS011;7123;49.468;10.992;2023-04-03T13:15:12;2.43;;;1.57;;
14092;SDS011;7123;49.468;10.992;2023-04-03T13:17:53;4.00;;;1.67;;
14092;SDS011;7123;49.468;10.992;2023-04-03T13:20:27;4.70;;;1.60;;
14092;SDS011;7123;49.468;10.992;2023-04-03T13:23:04;1.67;;;1.33;;
14092;SDS011;7123;49.468;10.992;2023-04-03T13:25:41;2.13;;;1.73;;
14092;SDS011;7123;49.468;10.992;2023-04-03T13:28:10;2.93;;;1.50;;
14092;SDS011;7123;49.468;10.992;2023-04-03T13:30:41;1.93;;;1.50;;
14092;SDS011;7123;49.468;10.992;2023-04-03T13:33:26;1.90;;;1.33;;
14092;SDS011;7123;49.468;10.992;2023-04-03T13:36:00;1.43;;;1.33;;
14092;SDS011;7123;49.468;10.992;2023-04-03T13:38:33;3.40;;;1.50;;
14092;SDS011;7123;49.468;10.992;2023-04-03T13:41:21;2.60;;;1.50;;
14092;SDS011;7123;49.468;10.992;2023-04-03T13:43:52;1.27;;;1.17;;
14092;SDS011;7123;49.468;10.992;2023-04-03T13:46:28;1.83;;;1.30;;
14092;SDS011;7123;49.468;10.992;2023-04-03T13:48:55;3.67;;;1.63;;
14092;SDS011;7123;49.468;10.992;2023-04-03T13:51:27;3.20;;;1.80;;
14092;SDS011;7123;49.468;10.992;2023-04-03T13:53:57;4.60;;;1.50;;
14092;SDS011;7123;49.468;10.992;2023-04-03T13:56:35;3.07;;;1.53;;
14092;SDS011;7123;49.468;10.992;2023-04-03T14:01:43;2.10;;;1.90;;
14092;SDS011;7123;49.468;10.992;2023-04-03T14:04:24;2.80;;;1.80;;
14092;SDS011;7123;49.468;10.992;2023-04-03T14:06:54;4.50;;;1.63;;
14092;SDS011;7123;49.468;10.992;2023-04-03T14:09:24;2.70;;;1.80;;
14092;SDS011;7123;49.468;10.992;2023-04-03T14:11:53;1.60;;;1.50;;
14092;SDS011;7123;49.468;10.992;2023-04-03T14:14:27;2.53;;;1.43;;
14092;SDS011;7123;49.468;10.992;2023-04-03T14:16:57;2.00;;;1.80;;
14092;SDS011;7123;49.468;10.992;2023-04-03T14:19:30;2.43;;;1.60;;
14092;SDS011;7123;49.468;10.992;2023-04-03T14:22:06;5.03;;;1.93;;
14092;SDS011;7123;49.468;10.992;2023-04-03T14:24:42;2.47;;;1.63;;
14092;SDS011;7123;49.468;10.992;2023-04-03T14:27:15;1.90;;;1.47;;
14092;SDS011;7123;49.468;10.992;2023-04-03T14:29:50;1.43;;;1.27;;
14092;SDS011;7123;49.468;10.992;2023-04-03T14:32:19;2.47;;;1.50;;
14092;SDS011;7123;49.468;10.992;2023-04-03T14:34:48;2.13;;;1.70;;
14092;SDS011;7123;49.468;10.992;2023-04-03T14:37:17;1.33;;;1.23;;
14092;SDS011;7123;49.468;10.992;2023-04-03T14:39:49;3.50;;;1.60;;
14092;SDS011;7123;49.468;10.992;2023-04-03T14:42:23;2.17;;;1.37;;
14092;SDS011;7123;49.468;10.992;2023-04-03T14:45:03;6.17;;;2.03;;
14092;SDS011;7123;49.468;10.992;2023-04-03T14:47:32;3.67;;;1.67;;
14092;SDS011;7123;49.468;10.992;2023-04-03T14:50:00;8.80;;;1.73;;
14092;SDS011;7123;49.468;10.992;2023-04-03T14:52:32;2.03;;;1.83;;
14092;SDS011;7123;49.468;10.992;2023-04-03T14:55:03;3.03;;;1.63;;
14092;SDS011;7123;49.468;10.992;2023-04-03T14:57:32;3.07;;;1.43;;
14092;SDS011;7123;49.468;10.992;2023-04-03T14:59:59;1.53;;;1.33;;
14092;SDS011;7123;49.468;10.992;2023-04-03T15:02:29;3.03;;;1.60;;
14092;SDS011;7123;49.468;10.992;2023-04-03T15:04:58;2.13;;;1.50;;
14092;SDS011;7123;49.468;10.992;2023-04-03T15:07:27;1.70;;;1.60;;
14092;SDS011;7123;49.468;10.992;2023-04-03T15:09:56;1.83;;;1.67;;
14092;SDS011;7123;49.468;10.992;2023-04-03T15:12:23;3.93;;;1.80;;
14092;SDS011;7123;49.468;10.992;2023-04-03T15:14:50;3.63;;;1.60;;
14092;SDS011;7123;49.468;10.992;2023-04-03T15:17:28;1.90;;;1.60;;
14092;SDS011;7123;49.468;10.992;2023-04-03T15:19:54;2.30;;;1.47;;
14092;SDS011;7123;49.468;10.992;2023-04-03T15:22:24;8.13;;;2.03;;
14092;SDS011;7123;49.468;10.992;2023-04-03T15:24:51;2.57;;;1.47;;
14092;SDS011;7123;49.468;10.992;2023-04-03T15:27:17;2.73;;;1.70;;
14092;SDS011;7123;49.468;10.992;2023-04-03T15:29:44;2.40;;;1.70;;
14092;SDS011;7123;49.468;10.992;2023-04-03T15:32:11;2.17;;;1.40;;
14092;SDS011;7123;49.468;10.992;2023-04-03T15:34:39;4.00;;;1.60;;
14092;SDS011;7123;49.468;10.992;2023-04-03T15:37:06;2.10;;;1.80;;
14092;SDS011;7123;49.468;10.992;2023-04-03T15:39:32;2.10;;;1.47;;
14092;SDS011;7123;49.468;10.992;2023-04-03T15:41:59;1.53;;;1.30;;
14092;SDS011;7123;49.468;10.992;2023-04-03T15:44:34;1.90;;;1.53;;
14092;SDS011;7123;49.468;10.992;2023-04-03T15:47:01;2.07;;;1.60;;
14092;SDS011;7123;49.468;10.992;2023-04-03T15:49:29;4.83;;;1.43;;
14092;SDS011;7123;49.468;10.992;2023-04-03T15:51:57;2.83;;;1.70;;
14092;SDS011;7123;49.468;10.992;2023-04-03T15:54:23;2.17;;;1.80;;
14092;SDS011;7123;49.468;10.992;2023-04-03T15:56:52;2.87;;;1.70;;
14092;SDS011;7123;49.468;10.992;2023-04-03T15:59:19;2.60;;;1.67;;
14092;SDS011;7123;49.468;10.992;2023-04-03T16:01:46;2.67;;;1.87;;
14092;SDS011;7123;49.468;10.992;2023-04-03T16:04:14;2.47;;;1.50;;
14092;SDS011;7123;49.468;10.992;2023-04-03T16:06:43;3.30;;;1.70;;
14092;SDS011;7123;49.468;10.992;2023-04-03T16:09:10;3.90;;;1.60;;
14092;SDS011;7123;49.468;10.992;2023-04-03T16:11:37;1.63;;;1.53;;
14092;SDS011;7123;49.468;10.992;2023-04-03T16:14:06;2.80;;;1.60;;
14092;SDS011;7123;49.468;10.992;2023-04-03T16:16:33;2.23;;;1.50;;
14092;SDS011;7123;49.468;10.992;2023-04-03T16:19:00;1.67;;;1.57;;
14092;SDS011;7123;49.468;10.992;2023-04-03T16:21:27;1.30;;;1.30;;
14092;SDS011;7123;49.468;10.992;2023-04-03T16:23:56;3.33;;;1.40;;
14092;SDS011;7123;49.468;10.992;2023-04-03T16:26:24;3.33;;;1.90;;
14092;SDS011;7123;49.468;10.992;2023-04-03T16:28:51;3.30;;;1.57;;
14092;SDS011;7123;49.468;10.992;2023-04-03T16:31:19;1.50;;;1.40;;
14092;SDS011;7123;49.468;10.992;2023-04-03T16:33:47;2.00;;;1.60;;
14092;SDS011;7123;49.468;10.992;2023-04-03T16:36:14;2.83;;;1.67;;
14092;SDS011;7123;49.468;10.992;2023-04-03T16:38:41;1.83;;;1.70;;
14092;SDS011;7123;49.468;10.992;2023-04-03T16:41:07;1.57;;;1.47;;
14092;SDS011;7123;49.468;10.992;2023-04-03T16:43:34;2.90;;;1.60;;
14092;SDS011;7123;49.468;10.992;2023-04-03T16:46:02;2.90;;;1.50;;
14092;SDS011;7123;49.468;10.992;2023-04-03T16:48:29;2.50;;;1.40;;